createdAt,value
2018-06-28T00:00:05.959Z,1018.86
2018-06-28T00:01:06.291Z,1018.84
2018-06-28T00:02:06.123Z,1018.81
2018-06-28T00:03:06.060Z,1018.85
2018-06-28T00:04:06.088Z,1018.82
2018-06-28T00:05:06.123Z,1018.85
2018-06-28T00:06:06.188Z,1018.86
2018-06-28T00:07:06.444Z,1018.84
2018-06-28T00:08:06.287Z,1018.85
2018-06-28T00:09:06.253Z,1018.88
2018-06-28T00:10:06.299Z,1018.83
2018-06-28T00:11:06.322Z,1018.88
2018-06-28T00:12:06.350Z,1018.88
2018-06-28T00:13:06.636Z,1018.89
2018-06-28T00:14:06.426Z,1018.93
2018-06-28T00:15:06.445Z,1018.96
2018-06-28T00:16:06.576Z,1019.00
2018-06-28T00:17:06.520Z,1019.00
2018-06-28T00:18:06.717Z,1019.06
2018-06-28T00:19:06.588Z,1019.03
2018-06-28T00:20:06.610Z,1019.06
2018-06-28T00:21:06.645Z,1019.03
2018-06-28T00:22:06.678Z,1019.05
2018-06-28T00:23:06.707Z,1019.08
2018-06-28T00:24:06.739Z,1019.06
2018-06-28T00:25:07.035Z,1019.08
2018-06-28T00:26:06.810Z,1019.04
2018-06-28T00:27:06.835Z,1019.04
2018-06-28T00:28:06.875Z,1018.97
2018-06-28T00:29:06.902Z,1019.00
2018-06-28T00:30:06.936Z,1018.95
2018-06-28T00:31:06.965Z,1019.00
2018-06-28T00:32:07.251Z,1019.00
2018-06-28T00:33:07.035Z,1018.97
2018-06-28T00:34:07.063Z,1018.96
2018-06-28T00:35:07.099Z,1019.00
2018-06-28T00:36:07.132Z,1018.97
2018-06-28T00:37:07.158Z,1018.98
2018-06-28T00:38:07.190Z,1018.99
2018-06-28T00:39:07.525Z,1018.95
2018-06-28T00:40:07.256Z,1018.99
2018-06-28T00:41:07.287Z,1018.95
2018-06-28T00:42:07.320Z,1018.96
2018-06-28T00:43:07.370Z,1018.97
2018-06-28T00:44:07.384Z,1018.95
2018-06-28T00:45:07.415Z,1019.01
2018-06-28T00:46:07.700Z,1019.02
2018-06-28T00:47:07.484Z,1018.95
2018-06-28T00:48:07.521Z,1018.98
2018-06-28T00:49:07.589Z,1018.99
2018-06-28T00:50:07.601Z,1018.94
2018-06-28T00:51:07.607Z,1018.98
2018-06-28T00:52:07.742Z,1018.97
2018-06-28T00:53:07.937Z,1018.99
2018-06-28T00:54:07.703Z,1018.94
2018-06-28T00:55:07.770Z,1018.94
2018-06-28T00:56:07.780Z,1018.95
2018-06-28T00:57:07.848Z,1018.95
2018-06-28T00:58:07.846Z,1018.92
2018-06-28T00:59:07.864Z,1018.99
2018-06-28T01:00:08.221Z,1018.98
2018-06-28T01:01:07.928Z,1018.99
2018-06-28T01:02:07.956Z,1018.96
2018-06-28T01:03:08.044Z,1018.92
2018-06-28T01:04:08.020Z,1018.93
2018-06-28T01:05:08.074Z,1018.90
2018-06-28T01:06:08.090Z,1018.89
2018-06-28T01:07:08.444Z,1018.88
2018-06-28T01:08:08.148Z,1018.89
2018-06-28T01:09:08.180Z,1018.89
2018-06-28T01:10:08.211Z,1018.87
2018-06-28T01:11:08.269Z,1018.87
2018-06-28T01:12:08.274Z,1018.86
2018-06-28T01:13:08.398Z,1018.90
2018-06-28T01:14:08.593Z,1018.89
2018-06-28T01:15:08.381Z,1018.89
2018-06-28T01:16:08.415Z,1018.88
2018-06-28T01:17:08.433Z,1018.91
2018-06-28T01:18:08.478Z,1018.87
2018-06-28T01:19:08.555Z,1018.86
2018-06-28T01:20:08.595Z,1018.86
2018-06-28T01:21:08.815Z,1018.86
2018-06-28T01:22:08.595Z,1018.87
2018-06-28T01:23:08.633Z,1018.88
2018-06-28T01:24:08.653Z,1018.86
2018-06-28T01:25:08.690Z,1018.84
2018-06-28T01:26:08.716Z,1018.85
2018-06-28T01:27:08.747Z,1018.86
2018-06-28T01:28:09.104Z,1018.84
2018-06-28T01:29:08.829Z,1018.83
2018-06-28T01:30:08.842Z,1018.82
2018-06-28T01:31:08.896Z,1018.82
2018-06-28T01:32:08.927Z,1018.86
2018-06-28T01:33:09.037Z,1018.87
2018-06-28T01:34:08.972Z,1018.82
2018-06-28T01:35:09.297Z,1018.83
2018-06-28T01:36:09.069Z,1018.82
2018-06-28T01:37:09.061Z,1018.81
2018-06-28T01:38:09.149Z,1018.83
2018-06-28T01:39:09.149Z,1018.81
2018-06-28T01:40:09.157Z,1018.81
2018-06-28T01:41:09.437Z,1018.83
2018-06-28T01:42:09.222Z,1018.82
2018-06-28T01:43:09.253Z,1018.83
2018-06-28T01:44:09.292Z,1018.83
2018-06-28T01:45:09.322Z,1018.85
2018-06-28T01:46:09.351Z,1018.83
2018-06-28T01:47:09.679Z,1018.83
2018-06-28T01:48:09.465Z,1018.80
2018-06-28T01:49:09.669Z,1018.82
2018-06-28T01:50:09.474Z,1018.83
2018-06-28T01:51:09.506Z,1018.83
2018-06-28T01:52:09.576Z,1018.80
2018-06-28T01:53:09.820Z,1018.84
2018-06-28T01:54:09.598Z,1018.80
2018-06-28T01:55:09.623Z,1018.85
2018-06-28T01:56:09.654Z,1018.86
2018-06-28T01:57:09.689Z,1018.85
2018-06-28T01:58:09.720Z,1018.85
2018-06-28T01:59:10.007Z,1018.83
2018-06-28T02:00:09.780Z,1018.86
2018-06-28T02:01:09.818Z,1018.82
2018-06-28T02:02:09.844Z,1018.79
2018-06-28T02:03:09.873Z,1018.78
2018-06-28T02:04:09.906Z,1018.80
2018-06-28T02:05:10.187Z,1018.78
2018-06-28T02:06:09.965Z,1018.77
2018-06-28T02:07:09.997Z,1018.76
2018-06-28T02:08:10.033Z,1018.76
2018-06-28T02:09:10.081Z,1018.78
2018-06-28T02:10:10.091Z,1018.77
2018-06-28T02:11:10.394Z,1018.78
2018-06-28T02:12:10.155Z,1018.77
2018-06-28T02:13:10.191Z,1018.78
2018-06-28T02:14:10.217Z,1018.77
2018-06-28T02:15:10.248Z,1018.78
2018-06-28T02:16:10.279Z,1018.75
2018-06-28T02:17:10.561Z,1018.79
2018-06-28T02:18:10.343Z,1018.79
2018-06-28T02:19:10.377Z,1018.79
2018-06-28T02:20:10.408Z,1018.79
2018-06-28T02:21:10.437Z,1018.75
2018-06-28T02:22:10.469Z,1018.82
2018-06-28T02:23:10.804Z,1018.80
2018-06-28T02:24:10.538Z,1018.79
2018-06-28T02:25:10.566Z,1018.80
2018-06-28T02:26:10.595Z,1018.77
2018-06-28T02:27:10.628Z,1018.76
2018-06-28T02:28:10.666Z,1018.77
2018-06-28T02:29:11.045Z,1018.78
2018-06-28T02:30:10.725Z,1018.78
2018-06-28T02:31:10.761Z,1018.81
2018-06-28T02:32:10.791Z,1018.82
2018-06-28T02:33:10.820Z,1018.79
2018-06-28T02:34:10.861Z,1018.82
2018-06-28T02:35:11.169Z,1018.82
2018-06-28T02:36:10.926Z,1018.79
2018-06-28T02:37:10.950Z,1018.85
2018-06-28T02:38:10.988Z,1018.85
2018-06-28T02:39:11.012Z,1018.84
2018-06-28T02:40:11.049Z,1018.88
2018-06-28T02:41:11.329Z,1018.85
2018-06-28T02:42:11.115Z,1018.89
2018-06-28T02:43:11.157Z,1018.87
2018-06-28T02:44:11.183Z,1018.89
2018-06-28T02:45:11.207Z,1018.86
2018-06-28T02:46:11.240Z,1018.82
2018-06-28T02:47:11.603Z,1018.86
2018-06-28T02:48:11.304Z,1018.88
2018-06-28T02:49:11.334Z,1018.87
2018-06-28T02:50:11.376Z,1018.90
2018-06-28T02:51:11.398Z,1018.88
2018-06-28T02:52:11.431Z,1018.91
2018-06-28T02:53:11.766Z,1018.92
2018-06-28T02:54:11.500Z,1018.94
2018-06-28T02:55:11.528Z,1018.91
2018-06-28T02:56:11.562Z,1018.89
2018-06-28T02:57:11.594Z,1018.91
2018-06-28T02:58:11.632Z,1018.87
2018-06-28T02:59:11.659Z,1018.87
2018-06-28T03:00:11.992Z,1018.89
2018-06-28T03:01:11.742Z,1018.91
2018-06-28T03:02:11.757Z,1018.92
2018-06-28T03:03:11.788Z,1018.91
2018-06-28T03:04:11.825Z,1018.92
2018-06-28T03:05:11.852Z,1018.89
2018-06-28T03:06:11.898Z,1018.88
2018-06-28T03:07:12.167Z,1018.89
2018-06-28T03:08:11.947Z,1018.89
2018-06-28T03:09:11.982Z,1018.92
2018-06-28T03:10:12.012Z,1018.91
2018-06-28T03:11:12.045Z,1018.95
2018-06-28T03:12:12.080Z,1018.95
2018-06-28T03:13:12.110Z,1018.95
2018-06-28T03:14:12.443Z,1018.96
2018-06-28T03:15:12.175Z,1018.94
2018-06-28T03:16:12.212Z,1018.95
2018-06-28T03:17:12.242Z,1018.93
2018-06-28T03:18:12.277Z,1018.92
2018-06-28T03:19:12.331Z,1018.94
2018-06-28T03:20:12.372Z,1018.94
2018-06-28T03:21:12.625Z,1018.97
2018-06-28T03:22:12.406Z,1018.96
2018-06-28T03:23:12.434Z,1018.99
2018-06-28T03:24:12.466Z,1019.00
2018-06-28T03:25:12.501Z,1019.02
2018-06-28T03:26:12.536Z,1018.99
2018-06-28T03:27:12.564Z,1018.98
2018-06-28T03:28:12.898Z,1018.98
2018-06-28T03:29:12.628Z,1018.97
2018-06-28T03:30:12.666Z,1018.97
2018-06-28T03:31:12.694Z,1018.96
2018-06-28T03:32:12.725Z,1018.91
2018-06-28T03:33:12.761Z,1018.92
2018-06-28T03:34:12.791Z,1018.96
2018-06-28T03:35:13.075Z,1018.97
2018-06-28T03:36:12.870Z,1019.00
2018-06-28T03:37:12.893Z,1019.05
2018-06-28T03:38:13.172Z,1019.01
2018-06-28T03:39:12.956Z,1019.04
2018-06-28T03:40:12.991Z,1019.03
2018-06-28T03:41:13.022Z,1019.00
2018-06-28T03:42:13.300Z,1019.06
2018-06-28T03:43:13.082Z,1019.02
2018-06-28T03:44:13.119Z,1019.05
2018-06-28T03:45:13.148Z,1019.03
2018-06-28T03:46:13.183Z,1019.11
2018-06-28T03:47:13.214Z,1019.06
2018-06-28T03:48:13.253Z,1019.02
2018-06-28T03:49:13.534Z,1019.04
2018-06-28T03:50:13.316Z,1019.00
2018-06-28T03:51:13.343Z,1018.98
2018-06-28T03:52:13.387Z,1018.97
2018-06-28T03:53:13.410Z,1018.99
2018-06-28T03:54:13.447Z,1018.94
2018-06-28T03:55:13.496Z,1018.95
2018-06-28T03:56:13.824Z,1018.92
2018-06-28T03:57:13.538Z,1018.96
2018-06-28T03:58:13.575Z,1018.95
2018-06-28T03:59:13.607Z,1019.01
2018-06-28T04:00:13.645Z,1018.99
2018-06-28T04:01:13.669Z,1018.97
2018-06-28T04:02:13.705Z,1018.95
2018-06-28T04:03:14.036Z,1018.94
2018-06-28T04:04:13.770Z,1018.97
2018-06-28T04:05:13.800Z,1019.00
2018-06-28T04:06:13.850Z,1018.95
2018-06-28T04:07:13.955Z,1018.99
2018-06-28T04:08:13.901Z,1018.96
2018-06-28T04:09:13.929Z,1018.96
2018-06-28T04:10:14.266Z,1019.00
2018-06-28T04:11:13.999Z,1019.00
2018-06-28T04:12:14.043Z,1018.99
2018-06-28T04:13:14.069Z,1019.07
2018-06-28T04:14:14.095Z,1019.03
2018-06-28T04:15:14.125Z,1019.04
2018-06-28T04:16:14.482Z,1019.04
2018-06-28T04:17:14.207Z,1019.07
2018-06-28T04:18:14.227Z,1019.07
2018-06-28T04:19:14.260Z,1019.08
2018-06-28T04:20:14.294Z,1019.06
2018-06-28T04:21:14.335Z,1019.05
2018-06-28T04:22:14.722Z,1019.07
2018-06-28T04:23:14.386Z,1019.04
2018-06-28T04:24:14.421Z,1019.06
2018-06-28T04:25:14.452Z,1019.04
2018-06-28T04:26:14.504Z,1019.05
2018-06-28T04:27:14.535Z,1019.05
2018-06-28T04:28:14.859Z,1019.06
2018-06-28T04:29:14.584Z,1019.06
2018-06-28T04:30:14.666Z,1019.06
2018-06-28T04:31:14.702Z,1019.11
2018-06-28T04:32:14.750Z,1019.08
2018-06-28T04:33:14.742Z,1019.06
2018-06-28T04:34:15.148Z,1019.07
2018-06-28T04:35:14.800Z,1019.06
2018-06-28T04:36:14.903Z,1019.04
2018-06-28T04:37:14.855Z,1019.08
2018-06-28T04:38:14.905Z,1019.05
2018-06-28T04:39:14.932Z,1019.12
2018-06-28T04:40:15.254Z,1019.13
2018-06-28T04:41:14.989Z,1019.08
2018-06-28T04:42:15.012Z,1019.11
2018-06-28T04:43:15.059Z,1019.10
2018-06-28T04:44:15.078Z,1019.14
2018-06-28T04:45:15.112Z,1019.14
2018-06-28T04:46:15.141Z,1019.14
2018-06-28T04:47:15.178Z,1019.15
2018-06-28T04:48:15.211Z,1019.16
2018-06-28T04:49:15.239Z,1019.18
2018-06-28T04:50:15.282Z,1019.17
2018-06-28T04:51:15.306Z,1019.18
2018-06-28T04:52:15.592Z,1019.15
2018-06-28T04:53:15.403Z,1019.18
2018-06-28T04:54:15.462Z,1019.17
2018-06-28T04:55:15.463Z,1019.12
2018-06-28T04:56:15.471Z,1019.15
2018-06-28T04:57:15.507Z,1019.12
2018-06-28T04:58:15.836Z,1019.11
2018-06-28T04:59:15.567Z,1019.10
2018-06-28T05:00:15.600Z,1019.11
2018-06-28T05:01:15.668Z,1019.06
2018-06-28T05:02:15.667Z,1019.05
2018-06-28T05:03:15.734Z,1019.04
2018-06-28T05:04:16.038Z,1019.06
2018-06-28T05:05:15.818Z,1019.07
2018-06-28T05:06:15.803Z,1019.04
2018-06-28T05:07:15.982Z,1019.04
2018-06-28T05:08:15.866Z,1019.00
2018-06-28T05:09:15.900Z,1019.04
2018-06-28T05:10:16.231Z,1019.04
2018-06-28T05:11:15.994Z,1019.01
2018-06-28T05:12:16.052Z,1019.06
2018-06-28T05:13:16.027Z,1019.07
2018-06-28T05:14:16.063Z,1019.06
2018-06-28T05:15:16.209Z,1019.02
2018-06-28T05:16:16.383Z,1019.05
2018-06-28T05:17:16.159Z,1019.07
2018-06-28T05:18:16.195Z,1019.06
2018-06-28T05:19:16.229Z,1019.06
2018-06-28T05:20:16.269Z,1019.06
2018-06-28T05:21:16.289Z,1019.08
2018-06-28T05:22:16.648Z,1019.07
2018-06-28T05:23:16.395Z,1019.04
2018-06-28T05:24:16.403Z,1019.08
2018-06-28T05:25:16.427Z,1019.10
2018-06-28T05:26:16.480Z,1019.07
2018-06-28T05:27:16.510Z,1019.05
2018-06-28T05:28:16.780Z,1019.07
2018-06-28T05:29:16.665Z,1019.04
2018-06-28T05:30:16.591Z,1019.05
2018-06-28T05:31:16.622Z,1019.05
2018-06-28T05:32:16.678Z,1019.04
2018-06-28T05:33:16.692Z,1019.05
2018-06-28T05:34:16.724Z,1019.03
2018-06-28T05:35:16.757Z,1019.04
2018-06-28T05:36:16.793Z,1019.06
2018-06-28T05:37:16.825Z,1019.03
2018-06-28T05:38:16.862Z,1019.03
2018-06-28T05:39:16.884Z,1019.06
2018-06-28T05:40:16.918Z,1019.02
2018-06-28T05:41:17.200Z,1019.03
2018-06-28T05:42:16.985Z,1019.02
2018-06-28T05:43:17.016Z,1018.98
2018-06-28T05:44:17.060Z,1018.97
2018-06-28T05:45:17.092Z,1018.97
2018-06-28T05:46:17.146Z,1018.97
2018-06-28T05:47:17.145Z,1019.00
2018-06-28T05:48:17.523Z,1019.01
2018-06-28T05:49:17.269Z,1019.00
2018-06-28T05:50:17.262Z,1018.98
2018-06-28T05:51:17.290Z,1019.00
2018-06-28T05:52:17.325Z,1018.98
2018-06-28T05:53:17.374Z,1018.99
2018-06-28T05:54:17.381Z,1018.99
2018-06-28T05:55:17.670Z,1018.96
2018-06-28T05:56:17.452Z,1018.93
2018-06-28T05:57:17.480Z,1018.93
2018-06-28T05:58:17.518Z,1018.95
2018-06-28T05:59:17.579Z,1018.94
2018-06-28T06:00:17.580Z,1018.93
2018-06-28T06:01:17.665Z,1018.98
2018-06-28T06:02:17.949Z,1018.97
2018-06-28T06:03:17.681Z,1018.96
2018-06-28T06:04:17.730Z,1019.01
2018-06-28T06:05:17.761Z,1018.98
2018-06-28T06:06:17.779Z,1019.03
2018-06-28T06:07:17.832Z,1018.98
2018-06-28T06:08:17.847Z,1019.00
2018-06-28T06:09:18.129Z,1018.97
2018-06-28T06:10:17.975Z,1018.98
2018-06-28T06:11:17.949Z,1018.98
2018-06-28T06:12:17.982Z,1018.95
2018-06-28T06:13:18.021Z,1018.97
2018-06-28T06:14:18.051Z,1019.00
2018-06-28T06:15:18.110Z,1019.00
2018-06-28T06:16:18.412Z,1018.99
2018-06-28T06:17:18.152Z,1019.01
2018-06-28T06:18:18.177Z,1019.01
2018-06-28T06:19:18.209Z,1019.04
2018-06-28T06:20:18.286Z,1019.03
2018-06-28T06:21:18.276Z,1018.99
2018-06-28T06:22:18.409Z,1019.03
2018-06-28T06:23:18.595Z,1019.04
2018-06-28T06:24:18.375Z,1019.02
2018-06-28T06:25:18.412Z,1019.01
2018-06-28T06:26:18.444Z,1019.03
2018-06-28T06:27:18.493Z,1019.02
2018-06-28T06:28:18.510Z,1019.04
2018-06-28T06:29:18.572Z,1019.03
2018-06-28T06:30:18.824Z,1019.02
2018-06-28T06:31:18.722Z,1019.01
2018-06-28T06:32:18.641Z,1018.99
2018-06-28T06:33:18.682Z,1019.04
2018-06-28T06:34:18.737Z,1018.99
2018-06-28T06:35:18.741Z,1019.03
2018-06-28T06:36:18.819Z,1018.99
2018-06-28T06:37:19.121Z,1018.98
2018-06-28T06:38:19.142Z,1018.97
2018-06-28T06:39:18.872Z,1018.99
2018-06-28T06:40:18.920Z,1018.97
2018-06-28T06:41:18.940Z,1018.98
2018-06-28T06:42:18.979Z,1019.02
2018-06-28T06:43:19.006Z,1019.00
2018-06-28T06:44:19.366Z,1018.99
2018-06-28T06:45:19.077Z,1019.02
2018-06-28T06:46:19.143Z,1019.02
2018-06-28T06:47:19.148Z,1019.01
2018-06-28T06:48:19.179Z,1019.00
2018-06-28T06:49:19.211Z,1019.04
2018-06-28T06:50:19.241Z,1019.03
2018-06-28T06:51:19.533Z,1018.99
2018-06-28T06:52:19.313Z,1019.00
2018-06-28T06:53:19.341Z,1019.02
2018-06-28T06:54:19.381Z,1019.01
2018-06-28T06:55:19.416Z,1019.00
2018-06-28T06:56:19.445Z,1018.97
2018-06-28T06:57:19.734Z,1018.97
2018-06-28T06:58:19.520Z,1018.99
2018-06-28T06:59:19.544Z,1018.99
2018-06-28T07:00:19.579Z,1018.97
2018-06-28T07:01:19.620Z,1018.95
2018-06-28T07:02:19.645Z,1018.97
2018-06-28T07:03:19.950Z,1018.95
2018-06-28T07:04:19.783Z,1018.98
2018-06-28T07:05:19.758Z,1018.98
2018-06-28T07:06:19.783Z,1018.96
2018-06-28T07:07:19.828Z,1019.00
2018-06-28T07:08:19.871Z,1018.97
2018-06-28T07:09:20.183Z,1018.99
2018-06-28T07:10:19.992Z,1018.99
2018-06-28T07:11:20.055Z,1018.99
2018-06-28T07:12:19.977Z,1018.97
2018-06-28T07:13:20.015Z,1018.99
2018-06-28T07:14:20.053Z,1018.97
2018-06-28T07:15:20.330Z,1019.01
2018-06-28T07:16:20.140Z,1018.99
2018-06-28T07:17:20.146Z,1019.02
2018-06-28T07:18:20.180Z,1019.02
2018-06-28T07:19:20.214Z,1019.04
2018-06-28T07:20:20.254Z,1019.05
2018-06-28T07:21:20.532Z,1019.06
2018-06-28T07:22:20.311Z,1019.08
2018-06-28T07:23:20.464Z,1019.07
2018-06-28T07:24:20.389Z,1019.05
2018-06-28T07:25:20.414Z,1019.04
2018-06-28T07:26:20.447Z,1019.00
2018-06-28T07:27:20.781Z,1019.00
2018-06-28T07:28:20.581Z,1019.02
2018-06-28T07:29:20.553Z,1018.99
2018-06-28T07:30:20.582Z,1019.00
2018-06-28T07:31:20.626Z,1018.99
2018-06-28T07:32:20.654Z,1019.03
2018-06-28T07:33:21.098Z,1018.98
2018-06-28T07:34:20.720Z,1019.00
2018-06-28T07:35:20.749Z,1018.98
2018-06-28T07:36:20.867Z,1018.97
2018-06-28T07:37:20.818Z,1018.96
2018-06-28T07:38:20.910Z,1018.99
2018-06-28T07:39:21.155Z,1019.00
2018-06-28T07:40:20.934Z,1019.02
2018-06-28T07:41:20.953Z,1018.99
2018-06-28T07:42:21.051Z,1019.00
2018-06-28T07:43:21.047Z,1018.99
2018-06-28T07:44:21.058Z,1018.97
2018-06-28T07:45:21.347Z,1018.99
2018-06-28T07:46:21.131Z,1018.95
2018-06-28T07:47:21.161Z,1018.95
2018-06-28T07:48:21.245Z,1018.94
2018-06-28T07:49:21.227Z,1018.96
2018-06-28T07:50:21.261Z,1018.97
2018-06-28T07:51:21.554Z,1018.96
2018-06-28T07:52:21.328Z,1018.91
2018-06-28T07:53:21.365Z,1018.95
2018-06-28T07:54:21.392Z,1018.92
2018-06-28T07:55:21.445Z,1018.98
2018-06-28T07:56:21.460Z,1018.94
2018-06-28T07:57:21.816Z,1018.97
2018-06-28T07:58:21.627Z,1018.93
2018-06-28T07:59:21.566Z,1018.93
2018-06-28T08:00:21.599Z,1018.95
2018-06-28T08:01:21.634Z,1018.91
2018-06-28T08:02:21.665Z,1018.92
2018-06-28T08:03:22.006Z,1018.94
2018-06-28T08:04:21.739Z,1018.89
2018-06-28T08:05:21.763Z,1018.90
2018-06-28T08:06:21.813Z,1018.86
2018-06-28T08:07:21.833Z,1018.89
2018-06-28T08:08:21.866Z,1018.87
2018-06-28T08:09:22.199Z,1018.84
2018-06-28T08:10:21.935Z,1018.84
2018-06-28T08:11:21.965Z,1018.86
2018-06-28T08:12:22.004Z,1018.86
2018-06-28T08:13:22.034Z,1018.88
2018-06-28T08:14:22.094Z,1018.87
2018-06-28T08:15:22.105Z,1018.86
2018-06-28T08:16:22.437Z,1018.86
2018-06-28T08:17:22.172Z,1018.85
2018-06-28T08:18:22.204Z,1018.83
2018-06-28T08:19:22.239Z,1018.85
2018-06-28T08:20:22.271Z,1018.84
2018-06-28T08:21:22.343Z,1018.81
2018-06-28T08:22:22.340Z,1018.84
2018-06-28T08:23:22.630Z,1018.77
2018-06-28T08:24:22.456Z,1018.84
2018-06-28T08:25:22.443Z,1018.85
2018-06-28T08:26:22.480Z,1018.83
2018-06-28T08:27:22.514Z,1018.81
2018-06-28T08:28:22.633Z,1018.79
2018-06-28T08:29:22.578Z,1018.87
2018-06-28T08:30:22.970Z,1018.87
2018-06-28T08:31:22.650Z,1018.88
2018-06-28T08:32:22.678Z,1018.85
2018-06-28T08:33:22.713Z,1018.85
2018-06-28T08:34:22.748Z,1018.86
2018-06-28T08:35:22.779Z,1018.89
2018-06-28T08:36:22.829Z,1018.86
2018-06-28T08:37:23.165Z,1018.83
2018-06-28T08:38:22.883Z,1018.89
2018-06-28T08:39:22.924Z,1018.88
2018-06-28T08:40:22.957Z,1018.87
2018-06-28T08:41:22.992Z,1018.87
2018-06-28T08:42:23.022Z,1018.84
2018-06-28T08:43:23.060Z,1018.86
2018-06-28T08:44:23.388Z,1018.87
2018-06-28T08:45:23.120Z,1018.83
2018-06-28T08:46:23.155Z,1018.84
2018-06-28T08:47:23.213Z,1018.85
2018-06-28T08:48:23.222Z,1018.84
2018-06-28T08:49:23.257Z,1018.86
2018-06-28T08:50:23.294Z,1018.80
2018-06-28T08:51:23.575Z,1018.84
2018-06-28T08:52:23.361Z,1018.86
2018-06-28T08:53:23.397Z,1018.82
2018-06-28T08:54:23.426Z,1018.79
2018-06-28T08:55:23.462Z,1018.81
2018-06-28T08:56:23.509Z,1018.76
2018-06-28T08:57:23.529Z,1018.73
2018-06-28T08:58:23.566Z,1018.70
2018-06-28T08:59:23.614Z,1018.73
2018-06-28T09:00:23.631Z,1018.77
2018-06-28T09:01:23.675Z,1018.73
2018-06-28T09:02:23.699Z,1018.68
2018-06-28T09:03:23.784Z,1018.70
2018-06-28T09:04:24.076Z,1018.74
2018-06-28T09:05:23.801Z,1018.74
2018-06-28T09:06:23.844Z,1018.74
2018-06-28T09:07:23.883Z,1018.72
2018-06-28T09:08:23.906Z,1018.73
2018-06-28T09:09:23.936Z,1018.71
2018-06-28T09:10:23.972Z,1018.74
2018-06-28T09:11:24.321Z,1018.77
2018-06-28T09:12:24.047Z,1018.77
2018-06-28T09:13:24.082Z,1018.75
2018-06-28T09:14:24.119Z,1018.73
2018-06-28T09:15:24.172Z,1018.73
2018-06-28T09:16:24.247Z,1018.66
2018-06-28T09:17:24.211Z,1018.70
2018-06-28T09:18:24.559Z,1018.66
2018-06-28T09:19:24.283Z,1018.70
2018-06-28T09:20:24.313Z,1018.63
2018-06-28T09:21:24.397Z,1018.65
2018-06-28T09:22:24.385Z,1018.66
2018-06-28T09:23:24.456Z,1018.68
2018-06-28T09:24:24.453Z,1018.67
2018-06-28T09:25:24.736Z,1018.65
2018-06-28T09:26:24.675Z,1018.68
2018-06-28T09:27:24.550Z,1018.67
2018-06-28T09:28:24.590Z,1018.63
2018-06-28T09:29:24.643Z,1018.69
2018-06-28T09:30:24.653Z,1018.64
2018-06-28T09:31:24.692Z,1018.67
2018-06-28T09:32:24.979Z,1018.64
2018-06-28T09:33:24.808Z,1018.58
2018-06-28T09:34:24.790Z,1018.60
2018-06-28T09:35:24.827Z,1018.60
2018-06-28T09:36:24.901Z,1018.61
2018-06-28T09:37:24.894Z,1018.61
2018-06-28T09:38:25.302Z,1018.63
2018-06-28T09:39:24.964Z,1018.67
2018-06-28T09:40:24.995Z,1018.64
2018-06-28T09:41:25.029Z,1018.61
2018-06-28T09:42:25.074Z,1018.60
2018-06-28T09:43:25.100Z,1018.60
2018-06-28T09:44:25.444Z,1018.61
2018-06-28T09:45:25.169Z,1018.58
2018-06-28T09:46:25.206Z,1018.53
2018-06-28T09:47:25.234Z,1018.52
2018-06-28T09:48:25.274Z,1018.50
2018-06-28T09:49:25.304Z,1018.52
2018-06-28T09:50:25.637Z,1018.54
2018-06-28T09:51:25.382Z,1018.49
2018-06-28T09:52:25.406Z,1018.43
2018-06-28T09:53:25.461Z,1018.48
2018-06-28T09:54:25.512Z,1018.41
2018-06-28T09:55:25.510Z,1018.42
2018-06-28T09:56:25.798Z,1018.38
2018-06-28T09:57:25.580Z,1018.44
2018-06-28T09:58:25.669Z,1018.42
2018-06-28T09:59:25.659Z,1018.44
2018-06-28T10:00:25.740Z,1018.40
2018-06-28T10:01:25.717Z,1018.39
2018-06-28T10:02:26.053Z,1018.37
2018-06-28T10:03:25.793Z,1018.40
2018-06-28T10:04:25.846Z,1018.38
2018-06-28T10:05:25.872Z,1018.42
2018-06-28T10:06:25.901Z,1018.43
2018-06-28T10:07:25.925Z,1018.39
2018-06-28T10:08:26.307Z,1018.43
2018-06-28T10:09:25.990Z,1018.46
2018-06-28T10:10:26.043Z,1018.38
2018-06-28T10:11:26.063Z,1018.41
2018-06-28T10:12:26.095Z,1018.40
2018-06-28T10:13:26.125Z,1018.39
2018-06-28T10:14:26.466Z,1018.34
2018-06-28T10:15:26.196Z,1018.29
2018-06-28T10:16:26.231Z,1018.30
2018-06-28T10:17:26.311Z,1018.31
2018-06-28T10:18:26.299Z,1018.31
2018-06-28T10:19:26.348Z,1018.30
2018-06-28T10:20:26.668Z,1018.31
2018-06-28T10:21:26.407Z,1018.37
2018-06-28T10:22:26.438Z,1018.30
2018-06-28T10:23:26.473Z,1018.24
2018-06-28T10:24:26.508Z,1018.25
2018-06-28T10:25:26.544Z,1018.28
2018-06-28T10:26:26.877Z,1018.27
2018-06-28T10:27:26.609Z,1018.24
2018-06-28T10:28:26.641Z,1018.19
2018-06-28T10:29:26.676Z,1018.20
2018-06-28T10:30:26.709Z,1018.13
2018-06-28T10:31:26.760Z,1018.14
2018-06-28T10:32:27.039Z,1018.15
2018-06-28T10:33:26.815Z,1018.17
2018-06-28T10:34:26.859Z,1018.14
2018-06-28T10:35:26.884Z,1018.17
2018-06-28T10:36:26.917Z,1018.13
2018-06-28T10:38:27.249Z,1018.04
2018-06-28T10:39:27.016Z,1018.04
2018-06-28T10:40:27.054Z,1018.09
2018-06-28T10:41:27.086Z,1018.05
2018-06-28T10:42:27.120Z,1018.03
2018-06-28T10:43:27.155Z,1018.01
2018-06-28T10:44:27.490Z,1018.02
2018-06-28T10:45:27.236Z,1018.05
2018-06-28T10:46:27.260Z,1017.96
2018-06-28T10:47:27.348Z,1018.01
2018-06-28T10:48:27.330Z,1018.01
2018-06-28T10:49:27.370Z,1018.06
2018-06-28T10:50:27.699Z,1018.00
2018-06-28T10:51:27.433Z,1017.99
2018-06-28T10:52:27.472Z,1017.95
2018-06-28T10:53:27.498Z,1017.92
2018-06-28T10:54:27.534Z,1017.96
2018-06-28T10:55:27.570Z,1017.90
2018-06-28T10:56:27.686Z,1017.92
2018-06-28T10:57:27.935Z,1017.89
2018-06-28T10:58:27.675Z,1017.90
2018-06-28T10:59:27.771Z,1017.87
2018-06-28T11:00:27.740Z,1017.92
2018-06-28T11:01:27.773Z,1017.91
2018-06-28T11:02:27.825Z,1017.84
2018-06-28T11:03:27.848Z,1017.85
2018-06-28T11:04:28.244Z,1017.83
2018-06-28T11:05:27.911Z,1017.82
2018-06-28T11:06:27.955Z,1017.84
2018-06-28T11:07:28.025Z,1017.79
2018-06-28T11:08:28.116Z,1017.80
2018-06-28T11:09:28.051Z,1017.78
2018-06-28T11:10:28.088Z,1017.75
2018-06-28T11:11:28.440Z,1017.71
2018-06-28T11:12:28.155Z,1017.77
2018-06-28T11:13:28.196Z,1017.70
2018-06-28T11:14:28.255Z,1017.66
2018-06-28T11:15:28.259Z,1017.65
2018-06-28T11:16:28.292Z,1017.64
2018-06-28T11:17:28.329Z,1017.65
2018-06-28T11:18:28.673Z,1017.68
2018-06-28T11:19:28.395Z,1017.66
2018-06-28T11:20:28.684Z,1017.67
2018-06-28T11:21:28.466Z,1017.63
2018-06-28T11:22:28.498Z,1017.63
2018-06-28T11:23:28.539Z,1017.64
2018-06-28T11:24:28.570Z,1017.64
2018-06-28T11:25:28.851Z,1017.63
2018-06-28T11:26:28.639Z,1017.60
2018-06-28T11:27:28.781Z,1017.58
2018-06-28T11:28:28.728Z,1017.53
2018-06-28T11:29:28.793Z,1017.56
2018-06-28T11:30:28.816Z,1017.57
2018-06-28T11:31:28.812Z,1017.52
2018-06-28T11:32:29.122Z,1017.51
2018-06-28T11:33:28.879Z,1017.49
2018-06-28T11:34:28.912Z,1017.51
2018-06-28T11:35:28.972Z,1017.44
2018-06-28T11:36:28.995Z,1017.42
2018-06-28T11:37:29.038Z,1017.46
2018-06-28T11:38:29.051Z,1017.50
2018-06-28T11:39:29.399Z,1017.46
2018-06-28T11:40:29.125Z,1017.44
2018-06-28T11:41:29.157Z,1017.50
2018-06-28T11:42:29.237Z,1017.48
2018-06-28T11:43:29.224Z,1017.47
2018-06-28T11:44:29.265Z,1017.49
2018-06-28T11:45:29.300Z,1017.49
2018-06-28T11:46:29.632Z,1017.42
2018-06-28T11:47:29.616Z,1017.44
2018-06-28T11:48:29.404Z,1017.42
2018-06-28T11:49:29.435Z,1017.35
2018-06-28T11:50:29.470Z,1017.38
2018-06-28T11:51:29.507Z,1017.34
2018-06-28T11:52:29.660Z,1017.33
2018-06-28T11:53:29.903Z,1017.31
2018-06-28T11:54:29.612Z,1017.31
2018-06-28T11:55:29.642Z,1017.30
2018-06-28T11:56:29.678Z,1017.24
2018-06-28T11:57:29.711Z,1017.22
2018-06-28T11:58:29.795Z,1017.21
2018-06-28T11:59:29.836Z,1017.21
2018-06-28T12:00:30.069Z,1017.21
2018-06-28T12:01:29.859Z,1017.22
2018-06-28T12:02:29.888Z,1017.18
2018-06-28T12:03:29.925Z,1017.14
2018-06-28T12:04:29.973Z,1017.14
2018-06-28T12:05:30.041Z,1017.11
2018-06-28T12:06:30.024Z,1017.14